Time;durP1;ratioP1;P1;durP2;ratioP2;P2;SDS_P1;SDS_P2;PMS_P1;PMS_P2;Temp;Humidity;BMP_temperature;BMP_pressure;BME280_temperature;BME280_humidity;BME280_pressure;Samples;Min_cycle;Max_cycle;Signal;HPM_P1;HPM_P2
2021/06/19 00:00:19;;;;;;;11.88;8.65;;;;;;;;;;5043548;28;20024;-63
2021/06/19 00:02:44;;;;;;;9.82;7.50;;;;;;;;;;5047180;28;20029;-62
2021/06/19 00:05:11;;;;;;;10.40;7.80;;;;;;;;;;5047929;28;20066;-62
2021/06/19 00:07:37;;;;;;;14.70;8.10;;;;;;;;;;5047216;28;20035;-62
2021/06/19 00:10:03;;;;;;;14.88;9.18;;;;;;;;;;5048526;28;20036;-62
2021/06/19 00:12:28;;;;;;;11.27;8.82;;;;;;;;;;5048124;28;20381;-62
2021/06/19 00:14:53;;;;;;;9.97;8.10;;;;;;;;;;5047653;28;20620;-63
2021/06/19 00:17:18;;;;;;;8.87;7.77;;;;;;;;;;5048192;28;20317;-62
2021/06/19 00:19:43;;;;;;;10.77;8.38;;;;;;;;;;5048829;28;20829;-61
2021/06/19 00:22:09;;;;;;;10.17;8.23;;;;;;;;;;5047446;28;20100;-62
2021/06/19 00:24:35;;;;;;;12.07;8.15;;;;;;;;;;5046886;28;20284;-62
2021/06/19 00:27:01;;;;;;;11.32;8.63;;;;;;;;;;5083237;28;20028;-62
2021/06/19 00:29:26;;;;;;;10.27;8.80;;;;;;;;;;5047634;28;20107;-63
2021/06/19 00:31:51;;;;;;;12.88;8.32;;;;;;;;;;5048222;28;20468;-63
2021/06/19 00:34:17;;;;;;;10.63;8.27;;;;;;;;;;5048266;28;20056;-63
2021/06/19 00:36:42;;;;;;;13.47;9.00;;;;;;;;;;5047793;28;20027;-62
2021/06/19 00:39:07;;;;;;;14.63;8.47;;;;;;;;;;5052272;28;20331;-62
2021/06/19 00:41:34;;;;;;;10.13;8.25;;;;;;;;;;5053553;28;20278;-62
2021/06/19 00:44:00;;;;;;;11.40;8.40;;;;;;;;;;5054684;28;20079;-62
2021/06/19 00:46:26;;;;;;;9.40;8.40;;;;;;;;;;5055052;28;20037;-62
2021/06/19 00:48:51;;;;;;;10.95;8.63;;;;;;;;;;5052739;28;20110;-62
2021/06/19 00:51:16;;;;;;;8.83;7.67;;;;;;;;;;5054174;28;20016;-61
2021/06/19 00:53:41;;;;;;;10.80;9.50;;;;;;;;;;5052444;28;20283;-63
2021/06/19 00:56:06;;;;;;;12.52;9.15;;;;;;;;;;5056942;28;20299;-62
2021/06/19 00:58:32;;;;;;;10.25;8.27;;;;;;;;;;5052785;28;20369;-62
2021/06/19 01:00:57;;;;;;;11.18;8.90;;;;;;;;;;5050501;28;20021;-62
2021/06/19 01:03:22;;;;;;;10.48;8.80;;;;;;;;;;5052493;28;20046;-62
2021/06/19 01:05:49;;;;;;;11.65;9.00;;;;;;;;;;5054656;28;20013;-62
2021/06/19 01:08:14;;;;;;;14.05;9.35;;;;;;;;;;5052811;28;20109;-61
2021/06/19 01:10:39;;;;;;;12.65;10.00;;;;;;;;;;5054558;28;20116;-62
2021/06/19 01:13:06;;;;;;;12.33;8.83;;;;;;;;;;5054003;28;20470;-62
2021/06/19 01:15:31;;;;;;;10.07;8.23;;;;;;;;;;5052772;28;21257;-62
2021/06/19 01:17:56;;;;;;;12.43;8.90;;;;;;;;;;5054502;28;20100;-62
2021/06/19 01:20:22;;;;;;;14.63;9.63;;;;;;;;;;5054085;28;20264;-62
2021/06/19 01:22:49;;;;;;;10.70;8.70;;;;;;;;;;5053882;28;20881;-62
2021/06/19 01:25:36;;;;;;;11.82;9.57;;;;;;;;;;5053830;28;20028;-61
2021/06/19 01:28:05;;;;;;;13.57;9.90;;;;;;;;;;5052517;28;20029;-62
2021/06/19 01:30:30;;;;;;;10.50;9.02;;;;;;;;;;5054018;28;20082;-62
2021/06/19 01:32:56;;;;;;;9.95;8.68;;;;;;;;;;5054575;28;20020;-63
2021/06/19 01:35:22;;;;;;;10.38;9.10;;;;;;;;;;5053160;28;20143;-62
2021/06/19 01:37:48;;;;;;;12.85;9.55;;;;;;;;;;5054626;28;20028;-62
2021/06/19 01:40:15;;;;;;;12.93;9.98;;;;;;;;;;5052863;28;20031;-61
2021/06/19 01:42:41;;;;;;;11.70;9.48;;;;;;;;;;5054296;28;20444;-62
2021/06/19 01:45:11;;;;;;;11.73;9.25;;;;;;;;;;5052425;28;20048;-62
2021/06/19 01:47:36;;;;;;;11.63;9.35;;;;;;;;;;5054505;28;20092;-62
2021/06/19 01:50:05;;;;;;;10.73;9.03;;;;;;;;;;5053520;28;20025;-62
2021/06/19 01:52:30;;;;;;;11.35;9.05;;;;;;;;;;5051056;28;20272;-62
2021/06/19 01:54:55;;;;;;;10.07;8.63;;;;;;;;;;5050663;28;20150;-61
2021/06/19 01:57:20;;;;;;;10.53;8.97;;;;;;;;;;5050383;28;20361;-62
2021/06/19 01:59:46;;;;;;;10.82;9.52;;;;;;;;;;5049455;28;20288;-62
2021/06/19 02:02:11;;;;;;;12.30;8.83;;;;;;;;;;5050368;28;20025;-62
2021/06/19 02:04:36;;;;;;;14.15;9.23;;;;;;;;;;5050312;28;20290;-62
2021/06/19 02:07:01;;;;;;;11.32;9.10;;;;;;;;;;5049700;28;20024;-61
2021/06/19 02:09:27;;;;;;;12.27;9.55;;;;;;;;;;5049418;28;20048;-62
2021/06/19 02:11:52;;;;;;;13.32;9.00;;;;;;;;;;5048812;28;20064;-62
2021/06/19 02:14:17;;;;;;;13.50;9.30;;;;;;;;;;5050148;28;20027;-62
2021/06/19 02:16:43;;;;;;;11.03;9.60;;;;;;;;;;5048594;28;20104;-62
2021/06/19 02:19:09;;;;;;;11.95;9.07;;;;;;;;;;5045256;28;20292;-62
2021/06/19 02:21:34;;;;;;;13.27;8.52;;;;;;;;;;5046433;28;20452;-63
2021/06/19 02:23:59;;;;;;;11.20;8.87;;;;;;;;;;5050778;28;20131;-62
2021/06/19 02:26:24;;;;;;;12.60;9.02;;;;;;;;;;5052312;28;20272;-62
2021/06/19 02:28:49;;;;;;;12.60;9.68;;;;;;;;;;5049625;28;20029;-62
2021/06/19 02:31:15;;;;;;;13.90;9.45;;;;;;;;;;5048776;28;20053;-62
2021/06/19 02:33:41;;;;;;;10.93;9.43;;;;;;;;;;5050283;28;20052;-62
2021/06/19 02:36:06;;;;;;;12.75;9.10;;;;;;;;;;5048858;28;20458;-61
2021/06/19 02:38:31;;;;;;;12.35;9.95;;;;;;;;;;5048700;28;20044;-62
2021/06/19 02:40:56;;;;;;;12.30;9.77;;;;;;;;;;5053334;28;20017;-62
2021/06/19 02:43:23;;;;;;;11.33;9.30;;;;;;;;;;5049371;28;20209;-62
2021/06/19 02:45:48;;;;;;;11.75;9.30;;;;;;;;;;5049524;28;20663;-62
2021/06/19 02:48:14;;;;;;;11.00;9.65;;;;;;;;;;5048595;28;20021;-62
2021/06/19 02:50:40;;;;;;;11.70;8.70;;;;;;;;;;5048962;28;20017;-62
2021/06/19 02:53:06;;;;;;;11.93;9.23;;;;;;;;;;5049532;28;20052;-62
2021/06/19 02:55:38;;;;;;;12.23;9.20;;;;;;;;;;5054880;28;20067;-62
2021/06/19 02:58:04;;;;;;;11.27;9.73;;;;;;;;;;5036540;28;20036;-61
2021/06/19 03:00:29;;;;;;;10.95;9.57;;;;;;;;;;5048348;28;20032;-61
2021/06/19 03:02:54;;;;;;;12.18;9.77;;;;;;;;;;5048073;28;20029;-62
2021/06/19 03:05:21;;;;;;;12.52;9.93;;;;;;;;;;5049400;28;20013;-62
2021/06/19 03:07:46;;;;;;;12.00;10.05;;;;;;;;;;5048100;28;20031;-62
2021/06/19 03:10:13;;;;;;;12.60;9.75;;;;;;;;;;5049023;28;20025;-62
2021/06/19 03:12:39;;;;;;;13.60;10.25;;;;;;;;;;5047477;28;20028;-61
2021/06/19 03:15:05;;;;;;;11.57;9.85;;;;;;;;;;5048960;28;20025;-62
2021/06/19 03:17:30;;;;;;;11.00;9.75;;;;;;;;;;5048375;28;20095;-61
2021/06/19 03:19:55;;;;;;;14.20;10.20;;;;;;;;;;5048580;28;20473;-61
2021/06/19 03:22:21;;;;;;;10.80;9.57;;;;;;;;;;5046755;28;20519;-61
2021/06/19 03:24:46;;;;;;;15.27;10.40;;;;;;;;;;5049091;28;20107;-61
2021/06/19 03:27:12;;;;;;;10.90;9.68;;;;;;;;;;5050608;28;20287;-62
2021/06/19 03:29:37;;;;;;;14.00;10.23;;;;;;;;;;5047269;28;20028;-62
2021/06/19 03:32:03;;;;;;;11.73;10.20;;;;;;;;;;5047686;28;20017;-62
2021/06/19 03:34:29;;;;;;;14.30;10.73;;;;;;;;;;5046965;28;20041;-62
2021/06/19 03:36:59;;;;;;;13.95;10.25;;;;;;;;;;5048437;28;20504;-62
2021/06/19 03:39:24;;;;;;;13.68;9.93;;;;;;;;;;5048174;28;20048;-62
2021/06/19 03:41:49;;;;;;;12.73;10.25;;;;;;;;;;5049249;28;20009;-62
2021/06/19 03:44:15;;;;;;;11.70;10.57;;;;;;;;;;5047501;28;20367;-63
2021/06/19 03:46:40;;;;;;;13.95;11.02;;;;;;;;;;5047940;28;20375;-62
2021/06/19 03:49:05;;;;;;;14.25;9.98;;;;;;;;;;5048707;28;20071;-62
2021/06/19 03:51:30;;;;;;;13.77;10.18;;;;;;;;;;5048082;28;20187;-63
2021/06/19 03:53:56;;;;;;;12.57;9.45;;;;;;;;;;5047948;28;20071;-62
2021/06/19 03:56:21;;;;;;;12.63;10.70;;;;;;;;;;5049377;28;20024;-63
2021/06/19 03:58:46;;;;;;;12.70;10.20;;;;;;;;;;5046051;28;20388;-63
2021/06/19 04:01:11;;;;;;;13.50;10.30;;;;;;;;;;5045044;28;20322;-62
2021/06/19 04:03:37;;;;;;;15.57;10.75;;;;;;;;;;5048071;28;20275;-62
2021/06/19 04:06:02;;;;;;;11.00;9.63;;;;;;;;;;5048472;28;20028;-62
2021/06/19 04:08:27;;;;;;;14.85;9.77;;;;;;;;;;5047834;28;20017;-62
2021/06/19 04:10:52;;;;;;;11.93;9.35;;;;;;;;;;5047912;28;20063;-62
2021/06/19 04:13:18;;;;;;;11.02;9.20;;;;;;;;;;5047390;28;20056;-62
2021/06/19 04:15:43;;;;;;;13.95;9.38;;;;;;;;;;5047219;28;20020;-62
2021/06/19 04:18:08;;;;;;;11.68;9.38;;;;;;;;;;5047298;28;20037;-62
2021/06/19 04:20:33;;;;;;;12.00;9.63;;;;;;;;;;5048434;28;20029;-62
2021/06/19 04:22:58;;;;;;;12.15;8.93;;;;;;;;;;5048531;28;20287;-62
2021/06/19 04:25:24;;;;;;;12.02;8.43;;;;;;;;;;5046906;28;20388;-62
2021/06/19 04:27:52;;;;;;;10.60;8.73;;;;;;;;;;5047931;28;20024;-62
2021/06/19 04:30:18;;;;;;;14.25;8.73;;;;;;;;;;5046714;28;20388;-62
2021/06/19 04:32:43;;;;;;;11.10;8.73;;;;;;;;;;5048026;28;20028;-62
2021/06/19 04:35:08;;;;;;;11.15;8.50;;;;;;;;;;5046990;28;20055;-61
2021/06/19 04:37:34;;;;;;;13.02;7.82;;;;;;;;;;5046363;28;20031;-61
2021/06/19 04:42:39;;;;;;;12.23;8.32;;;;;;;;;;5047939;28;20025;-62
2021/06/19 04:45:08;;;;;;;12.23;7.95;;;;;;;;;;5047946;28;20025;-62
2021/06/19 04:47:33;;;;;;;;;;;;;;;;;;5047140;28;20032;-62
2021/06/19 04:49:59;;;;;;;12.47;8.60;;;;;;;;;;5044866;28;19905;-63
2021/06/19 04:52:25;;;;;;;11.10;8.30;;;;;;;;;;5047504;28;20283;-62
2021/06/19 04:54:53;;;;;;;12.02;8.40;;;;;;;;;;5047806;28;20029;-62
2021/06/19 04:57:18;;;;;;;9.93;8.20;;;;;;;;;;5045713;28;20100;-62
2021/06/19 04:59:43;;;;;;;11.48;7.97;;;;;;;;;;5047152;28;20495;-62
2021/06/19 05:02:08;;;;;;;11.98;7.65;;;;;;;;;;5047614;28;20538;-63
2021/06/19 05:04:33;;;;;;;11.65;7.63;;;;;;;;;;5048443;28;20025;-62
2021/06/19 05:06:59;;;;;;;11.25;8.05;;;;;;;;;;5044672;28;20024;-63
2021/06/19 05:09:24;;;;;;;9.35;8.20;;;;;;;;;;5046331;28;20634;-63
2021/06/19 05:11:49;;;;;;;11.48;7.47;;;;;;;;;;5046880;28;20388;-63
2021/06/19 05:14:14;;;;;;;12.10;7.82;;;;;;;;;;5048357;28;20401;-63
2021/06/19 05:16:39;;;;;;;10.13;7.50;;;;;;;;;;5045163;28;20056;-63
2021/06/19 05:19:05;;;;;;;11.20;7.27;;;;;;;;;;5047260;28;20112;-63
2021/06/19 05:21:30;;;;;;;10.30;6.70;;;;;;;;;;5046764;28;20631;-63
2021/06/19 05:23:55;;;;;;;11.02;7.30;;;;;;;;;;5045574;28;20280;-63
2021/06/19 05:26:20;;;;;;;9.37;6.97;;;;;;;;;;5050494;28;20029;-62
2021/06/19 05:28:45;;;;;;;10.85;7.40;;;;;;;;;;5050185;28;20298;-61
2021/06/19 05:31:11;;;;;;;10.13;6.97;;;;;;;;;;5050892;28;20438;-62
2021/06/19 05:33:36;;;;;;;8.30;6.63;;;;;;;;;;5051315;28;20307;-63
2021/06/19 05:36:01;;;;;;;9.68;7.32;;;;;;;;;;5050795;28;20055;-63
2021/06/19 05:38:26;;;;;;;11.10;7.10;;;;;;;;;;5050966;28;20040;-63
2021/06/19 05:40:52;;;;;;;8.10;6.70;;;;;;;;;;5049247;28;20379;-63
2021/06/19 05:43:17;;;;;;;10.57;7.23;;;;;;;;;;5050889;28;20291;-63
2021/06/19 05:45:42;;;;;;;12.48;7.75;;;;;;;;;;5050809;28;21133;-63
2021/06/19 05:48:07;;;;;;;11.53;7.87;;;;;;;;;;5051788;28;20023;-62
2021/06/19 05:50:32;;;;;;;11.88;7.68;;;;;;;;;;5049516;28;20356;-63
2021/06/19 05:52:58;;;;;;;9.47;7.67;;;;;;;;;;5050901;28;20368;-63
2021/06/19 05:55:23;;;;;;;12.25;7.65;;;;;;;;;;5048892;28;20417;-61
2021/06/19 05:57:48;;;;;;;12.70;7.43;;;;;;;;;;5051077;28;20043;-63
2021/06/19 06:00:14;;;;;;;12.05;7.18;;;;;;;;;;5049891;28;20036;-63
2021/06/19 06:02:40;;;;;;;13.02;7.75;;;;;;;;;;5050880;28;20541;-64
2021/06/19 06:05:05;;;;;;;15.75;8.35;;;;;;;;;;5048815;28;20047;-63
2021/06/19 06:07:30;;;;;;;10.88;7.25;;;;;;;;;;5049657;28;20025;-62
2021/06/19 06:09:55;;;;;;;9.43;6.70;;;;;;;;;;5044760;28;20032;-62
2021/06/19 06:12:21;;;;;;;8.77;6.80;;;;;;;;;;5047522;28;20546;-63
2021/06/19 06:14:46;;;;;;;11.57;6.67;;;;;;;;;;5047477;28;20277;-63
2021/06/19 06:17:11;;;;;;;9.18;6.10;;;;;;;;;;5047382;28;20389;-63
2021/06/19 06:19:36;;;;;;;8.38;6.32;;;;;;;;;;5048379;28;20036;-62
2021/06/19 06:22:04;;;;;;;12.33;6.33;;;;;;;;;;5048572;28;20040;-64
2021/06/19 06:24:30;;;;;;;11.90;6.65;;;;;;;;;;5040860;28;20484;-62
2021/06/19 06:26:55;;;;;;;9.38;6.40;;;;;;;;;;5049447;28;20032;-63
2021/06/19 06:29:20;;;;;;;8.75;5.85;;;;;;;;;;5049086;28;20590;-63
2021/06/19 06:31:45;;;;;;;8.87;6.30;;;;;;;;;;5049061;28;20017;-63
2021/06/19 06:34:11;;;;;;;12.07;6.77;;;;;;;;;;5050052;28;20315;-63
2021/06/19 06:36:36;;;;;;;9.00;6.45;;;;;;;;;;5048402;28;20029;-63
2021/06/19 06:39:04;;;;;;;11.77;6.78;;;;;;;;;;5049202;28;20033;-62
2021/06/19 06:41:29;;;;;;;9.00;6.20;;;;;;;;;;5044371;28;20414;-63
2021/06/19 06:43:55;;;;;;;13.82;6.55;;;;;;;;;;5050269;28;20027;-62
2021/06/19 06:46:20;;;;;;;11.53;6.60;;;;;;;;;;5047363;28;20017;-63
2021/06/19 06:48:45;;;;;;;12.43;6.33;;;;;;;;;;5047341;28;20334;-63
2021/06/19 06:51:10;;;;;;;10.38;5.90;;;;;;;;;;5048880;28;20275;-63
2021/06/19 06:53:36;;;;;;;11.63;5.90;;;;;;;;;;5049396;28;20032;-62
2021/06/19 06:56:01;;;;;;;14.60;6.47;;;;;;;;;;5051332;28;20029;-62
2021/06/19 06:58:26;;;;;;;8.03;6.33;;;;;;;;;;5049078;28;20365;-63
2021/06/19 07:00:51;;;;;;;8.53;5.77;;;;;;;;;;5048487;28;20859;-63
2021/06/19 07:03:16;;;;;;;9.95;5.88;;;;;;;;;;5049411;28;20029;-63
2021/06/19 07:05:42;;;;;;;10.45;5.80;;;;;;;;;;5049065;28;20025;-63
2021/06/19 07:08:07;;;;;;;8.93;5.18;;;;;;;;;;5049631;28;20024;-62
2021/06/19 07:10:32;;;;;;;10.65;5.60;;;;;;;;;;5048204;28;20027;-65
2021/06/19 07:12:57;;;;;;;10.23;5.70;;;;;;;;;;5049652;28;20104;-65
2021/06/19 07:15:23;;;;;;;10.02;5.63;;;;;;;;;;5050140;28;20598;-63
2021/06/19 07:17:48;;;;;;;10.55;6.45;;;;;;;;;;5049961;28;20028;-62
2021/06/19 07:20:14;;;;;;;13.23;6.20;;;;;;;;;;5049712;28;20024;-63
2021/06/19 07:22:40;;;;;;;12.50;6.20;;;;;;;;;;5047662;28;20052;-64
2021/06/19 07:25:07;;;;;;;10.23;6.00;;;;;;;;;;5052268;28;20052;-62
2021/06/19 07:27:32;;;;;;;9.27;5.90;;;;;;;;;;5050322;28;20025;-61
2021/06/19 07:29:58;;;;;;;11.02;5.88;;;;;;;;;;5048715;28;20432;-60
2021/06/19 07:32:23;;;;;;;11.75;5.82;;;;;;;;;;5049033;28;20051;-62
2021/06/19 07:34:48;;;;;;;10.65;6.03;;;;;;;;;;5049502;28;20084;-61
2021/06/19 07:37:14;;;;;;;12.60;5.72;;;;;;;;;;5048913;28;20028;-62
2021/06/19 07:39:39;;;;;;;10.13;5.97;;;;;;;;;;5049350;28;20044;-61
2021/06/19 07:42:04;;;;;;;9.57;5.30;;;;;;;;;;5046925;28;20024;-61
2021/06/19 07:44:31;;;;;;;10.60;5.90;;;;;;;;;;5047530;28;20666;-61
2021/06/19 07:46:56;;;;;;;11.75;6.03;;;;;;;;;;5047754;28;20083;-61
2021/06/19 07:49:21;;;;;;;11.93;6.20;;;;;;;;;;5048280;28;20464;-61
2021/06/19 07:51:46;;;;;;;8.63;5.82;;;;;;;;;;5049388;28;20279;-61
2021/06/19 07:54:11;;;;;;;11.00;6.03;;;;;;;;;;5049482;28;20086;-61
2021/06/19 07:56:37;;;;;;;11.27;5.87;;;;;;;;;;5047523;28;20401;-62
2021/06/19 07:59:02;;;;;;;17.80;5.90;;;;;;;;;;5048633;28;20303;-60
2021/06/19 08:01:28;;;;;;;7.53;4.88;;;;;;;;;;5046009;28;20385;-61
2021/06/19 08:03:53;;;;;;;9.82;6.03;;;;;;;;;;5048642;28;20052;-62
2021/06/19 08:06:18;;;;;;;10.48;5.47;;;;;;;;;;5048091;28;20596;-62
2021/06/19 08:08:43;;;;;;;8.13;5.45;;;;;;;;;;5049022;28;20028;-62
2021/06/19 08:11:08;;;;;;;12.13;5.72;;;;;;;;;;5049202;28;20013;-61
2021/06/19 08:13:34;;;;;;;9.00;5.93;;;;;;;;;;5048780;28;20032;-62
2021/06/19 08:16:02;;;;;;;9.30;5.63;;;;;;;;;;5049292;28;20027;-63
2021/06/19 08:18:28;;;;;;;9.48;5.45;;;;;;;;;;5048775;28;20032;-61
2021/06/19 08:20:53;;;;;;;11.00;5.43;;;;;;;;;;5048756;28;20099;-61
2021/06/19 08:23:18;;;;;;;9.90;5.43;;;;;;;;;;5048927;28;20128;-62
2021/06/19 08:25:43;;;;;;;8.55;5.72;;;;;;;;;;5048827;28;20262;-61
2021/06/19 08:28:09;;;;;;;9.95;5.50;;;;;;;;;;5048702;28;20028;-61
2021/06/19 08:30:34;;;;;;;12.38;5.80;;;;;;;;;;5048625;28;20464;-64
2021/06/19 08:32:59;;;;;;;9.90;5.65;;;;;;;;;;5046534;28;20071;-64
2021/06/19 08:35:25;;;;;;;7.82;5.53;;;;;;;;;;5048915;28;20074;-64
2021/06/19 08:37:50;;;;;;;11.80;5.83;;;;;;;;;;5045600;28;20071;-64
2021/06/19 08:40:15;;;;;;;11.75;6.07;;;;;;;;;;5054219;28;20409;-64
2021/06/19 08:42:40;;;;;;;16.48;6.35;;;;;;;;;;5046235;28;20035;-64
2021/06/19 08:45:06;;;;;;;10.73;5.80;;;;;;;;;;5047384;28;20056;-64
2021/06/19 08:47:36;;;;;;;11.73;6.15;;;;;;;;;;5045523;28;20342;-64
2021/06/19 08:50:04;;;;;;;9.95;6.55;;;;;;;;;;5046681;28;20037;-63
2021/06/19 08:52:30;;;;;;;11.27;6.15;;;;;;;;;;5047930;28;20033;-64
2021/06/19 08:54:55;;;;;;;14.70;6.18;;;;;;;;;;5044796;28;20021;-64
2021/06/19 08:57:20;;;;;;;11.05;6.50;;;;;;;;;;5027048;28;20049;-64
2021/06/19 08:59:49;;;;;;;11.85;6.25;;;;;;;;;;5045671;28;20029;-65
2021/06/19 09:02:15;;;;;;;9.70;5.63;;;;;;;;;;5049311;28;20355;-64
2021/06/19 09:04:59;;;;;;;11.90;5.80;;;;;;;;;;5052276;28;20107;-63
2021/06/19 09:07:33;;;;;;;11.48;6.45;;;;;;;;;;5049206;28;20021;-65
2021/06/19 09:10:14;;;;;;;9.55;5.63;;;;;;;;;;5052260;28;20032;-64
2021/06/19 09:12:39;;;;;;;12.50;6.05;;;;;;;;;;5046493;28;20013;-64
2021/06/19 09:15:14;;;;;;;10.40;5.57;;;;;;;;;;5049463;28;20032;-64
2021/06/19 09:17:39;;;;;;;10.10;4.95;;;;;;;;;;5058175;28;20025;-64
2021/06/19 09:20:05;;;;;;;11.17;6.33;;;;;;;;;;5062401;28;20086;-63
2021/06/19 09:22:30;;;;;;;10.10;5.60;;;;;;;;;;5060039;28;20013;-64
2021/06/19 09:24:56;;;;;;;9.83;5.93;;;;;;;;;;5063294;28;20480;-64
2021/06/19 09:27:38;;;;;;;7.07;5.50;;;;;;;;;;5060633;28;20024;-64
2021/06/19 09:30:10;;;;;;;13.52;6.38;;;;;;;;;;5063059;28;20036;-64
2021/06/19 09:32:41;;;;;;;12.43;5.50;;;;;;;;;;5061524;28;20013;-63
2021/06/19 09:35:10;;;;;;;11.45;5.63;;;;;;;;;;5061152;28;20075;-64
2021/06/19 09:37:38;;;;;;;10.43;5.78;;;;;;;;;;5059522;28;20023;-64
2021/06/19 09:40:18;;;;;;;9.90;5.13;;;;;;;;;;5060398;28;20024;-63
2021/06/19 09:42:43;;;;;;;13.70;6.35;;;;;;;;;;5055848;28;20105;-62
2021/06/19 09:45:16;;;;;;;11.98;5.90;;;;;;;;;;5057063;28;20470;-63
2021/06/19 09:47:41;;;;;;;15.48;5.55;;;;;;;;;;5056772;28;20025;-65
2021/06/19 09:50:07;;;;;;;11.25;5.60;;;;;;;;;;5055983;28;20025;-64
2021/06/19 09:52:32;;;;;;;10.40;5.25;;;;;;;;;;5056189;28;20021;-63
2021/06/19 09:54:59;;;;;;;13.63;5.67;;;;;;;;;;5053659;28;20079;-63
2021/06/19 09:57:38;;;;;;;9.55;5.85;;;;;;;;;;5063647;28;20456;-64
2021/06/19 10:00:03;;;;;;;13.32;5.80;;;;;;;;;;5055780;28;20064;-63
2021/06/19 10:02:29;;;;;;;8.35;5.38;;;;;;;;;;5055019;28;20511;-63
2021/06/19 10:04:56;;;;;;;8.15;5.32;;;;;;;;;;5056298;28;20067;-63
2021/06/19 10:07:23;;;;;;;13.80;5.32;;;;;;;;;;5059002;28;20031;-62
2021/06/19 10:09:48;;;;;;;10.30;5.63;;;;;;;;;;5056139;28;20027;-65
2021/06/19 10:12:16;;;;;;;9.73;5.28;;;;;;;;;;5055321;28;20104;-64
2021/06/19 10:14:44;;;;;;;7.95;5.20;;;;;;;;;;5059746;28;20028;-64
2021/06/19 10:17:10;;;;;;;12.02;5.30;;;;;;;;;;5054266;28;20051;-64
2021/06/19 10:19:36;;;;;;;10.55;5.63;;;;;;;;;;5057934;28;20492;-64
2021/06/19 10:22:01;;;;;;;11.98;5.40;;;;;;;;;;5060044;28;20464;-63
2021/06/19 10:24:26;;;;;;;9.30;5.72;;;;;;;;;;5055731;28;20037;-63
2021/06/19 10:26:53;;;;;;;9.23;5.63;;;;;;;;;;5059173;28;20020;-63
2021/06/19 10:29:23;;;;;;;9.82;5.55;;;;;;;;;;5051474;28;20737;-63
2021/06/19 10:31:50;;;;;;;12.98;6.15;;;;;;;;;;5059512;28;20028;-63
2021/06/19 10:34:22;;;;;;;8.57;5.70;;;;;;;;;;5058406;28;20048;-62
2021/06/19 10:36:47;;;;;;;11.07;5.50;;;;;;;;;;5058094;28;20024;-64
2021/06/19 10:39:15;;;;;;;13.25;4.90;;;;;;;;;;5054716;28;20101;-65
2021/06/19 10:41:48;;;;;;;9.52;5.90;;;;;;;;;;5058507;28;20021;-64
2021/06/19 10:44:14;;;;;;;11.20;5.13;;;;;;;;;;5054751;28;20021;-63
2021/06/19 10:46:40;;;;;;;8.93;5.00;;;;;;;;;;5052413;28;20070;-63
2021/06/19 10:49:18;;;;;;;7.72;5.60;;;;;;;;;;5056692;28;20476;-64
2021/06/19 10:51:43;;;;;;;10.45;5.25;;;;;;;;;;5058535;28;20070;-63
2021/06/19 10:54:09;;;;;;;13.18;5.63;;;;;;;;;;5056722;28;20676;-64
2021/06/19 10:56:52;;;;;;;11.15;5.70;;;;;;;;;;5052873;28;20029;-65
2021/06/19 10:59:20;;;;;;;11.27;5.55;;;;;;;;;;5032974;28;20028;-63
2021/06/19 11:01:45;;;;;;;9.93;5.05;;;;;;;;;;5052032;28;20475;-63
2021/06/19 11:04:29;;;;;;;10.43;5.72;;;;;;;;;;5055539;28;20063;-63
2021/06/19 11:06:55;;;;;;;8.43;5.63;;;;;;;;;;5055051;28;20117;-63
2021/06/19 11:09:34;;;;;;;11.88;5.97;;;;;;;;;;5054771;28;20104;-63
2021/06/19 11:12:02;;;;;;;10.13;5.55;;;;;;;;;;5052247;28;20100;-66
2021/06/19 11:14:39;;;;;;;11.88;5.30;;;;;;;;;;5054341;28;20032;-64
2021/06/19 11:17:05;;;;;;;10.13;5.78;;;;;;;;;;5054537;28;20031;-64
2021/06/19 11:19:31;;;;;;;9.80;5.80;;;;;;;;;;5059516;28;20399;-63
2021/06/19 11:22:18;;;;;;;10.10;5.95;;;;;;;;;;5056595;28;20104;-64
2021/06/19 11:25:02;;;;;;;8.85;6.03;;;;;;;;;;5056882;28;20029;-64
2021/06/19 11:27:46;;;;;;;11.07;6.07;;;;;;;;;;5050691;28;20025;-63
2021/06/19 11:30:31;;;;;;;10.05;5.82;;;;;;;;;;5055614;28;20025;-63
2021/06/19 11:33:20;;;;;;;12.60;5.70;;;;;;;;;;5017322;28;20044;-64
2021/06/19 11:35:47;;;;;;;8.18;5.82;;;;;;;;;;5012438;28;20041;-64
2021/06/19 11:38:12;;;;;;;11.77;6.10;;;;;;;;;;5017807;28;20034;-64
2021/06/19 11:40:38;;;;;;;12.75;5.95;;;;;;;;;;5014429;28;20120;-63
2021/06/19 11:43:04;;;;;;;16.13;6.68;;;;;;;;;;5017158;28;20037;-63
2021/06/19 11:45:29;;;;;;;11.38;5.90;;;;;;;;;;5015224;28;20053;-63
2021/06/19 11:48:00;;;;;;;9.60;5.65;;;;;;;;;;5017024;28;20409;-64
2021/06/19 11:50:29;;;;;;;9.50;5.63;;;;;;;;;;5015888;28;20124;-64
2021/06/19 11:52:54;;;;;;;9.95;5.78;;;;;;;;;;5014073;28;20723;-64
2021/06/19 11:55:23;;;;;;;11.17;5.83;;;;;;;;;;5014538;28;20049;-64
2021/06/19 11:57:57;;;;;;;15.80;6.07;;;;;;;;;;5014059;28;20332;-64
2021/06/19 12:00:22;;;;;;;11.77;5.47;;;;;;;;;;5012631;28;20408;-64
2021/06/19 12:02:52;;;;;;;29.60;12.52;;;;;;;;;;5013075;28;20030;-64
2021/06/19 12:05:18;;;;;;;9.70;6.30;;;;;;;;;;5011735;28;20116;-63
2021/06/19 12:07:49;;;;;;;14.27;5.65;;;;;;;;;;5014446;28;20601;-64
2021/06/19 12:10:25;;;;;;;11.15;6.40;;;;;;;;;;5037990;28;20051;-64
2021/06/19 12:12:57;;;;;;;11.43;7.15;;;;;;;;;;5054906;28;20056;-64
2021/06/19 12:15:22;;;;;;;13.75;7.70;;;;;;;;;;5056131;28;20066;-64
2021/06/19 12:17:47;;;;;;;9.60;6.93;;;;;;;;;;5057574;28;20017;-63
2021/06/19 12:20:22;;;;;;;9.18;7.05;;;;;;;;;;5056290;28;20279;-64
2021/06/19 12:22:48;;;;;;;9.38;6.35;;;;;;;;;;5057930;28;20021;-64
2021/06/19 12:25:25;;;;;;;8.60;6.43;;;;;;;;;;5053268;28;20381;-63
2021/06/19 12:27:50;;;;;;;14.38;7.40;;;;;;;;;;5056323;28;20103;-63
2021/06/19 12:30:16;;;;;;;16.90;7.07;;;;;;;;;;5056875;28;20123;-64
2021/06/19 12:32:43;;;;;;;11.65;7.30;;;;;;;;;;5057804;28;20286;-64
2021/06/19 12:35:12;;;;;;;11.93;6.43;;;;;;;;;;5056377;28;20052;-64
2021/06/19 12:37:39;;;;;;;13.60;7.30;;;;;;;;;;5053005;28;20109;-63
2021/06/19 12:40:06;;;;;;;10.15;6.78;;;;;;;;;;5055615;28;20396;-63
2021/06/19 12:42:37;;;;;;;12.05;6.70;;;;;;;;;;5053531;28;20025;-63
2021/06/19 12:45:05;;;;;;;10.95;6.55;;;;;;;;;;5053436;28;20120;-64
2021/06/19 12:47:34;;;;;;;12.82;6.40;;;;;;;;;;5055308;28;20205;-62
2021/06/19 12:49:59;;;;;;;9.43;6.25;;;;;;;;;;5054660;28;20047;-63
2021/06/19 12:52:25;;;;;;;11.48;6.88;;;;;;;;;;5054922;28;20070;-63
2021/06/19 12:55:06;;;;;;;9.98;7.18;;;;;;;;;;5055921;28;20028;-63
2021/06/19 12:57:31;;;;;;;7.80;6.20;;;;;;;;;;5056166;28;20052;-64
2021/06/19 12:59:57;;;;;;;11.38;6.88;;;;;;;;;;5055565;28;20511;-63
2021/06/19 13:02:22;;;;;;;11.13;6.37;;;;;;;;;;5052696;28;20396;-64
2021/06/19 13:04:47;;;;;;;9.17;6.23;;;;;;;;;;5054667;28;20271;-64
2021/06/19 13:07:13;;;;;;;13.00;6.63;;;;;;;;;;5056047;28;20351;-63
2021/06/19 13:09:51;;;;;;;9.30;5.65;;;;;;;;;;5053910;28;20314;-63
2021/06/19 13:12:19;;;;;;;11.45;5.85;;;;;;;;;;5051672;28;20018;-65
2021/06/19 13:14:47;;;;;;;8.88;5.97;;;;;;;;;;5056130;28;20333;-64
2021/06/19 13:17:18;;;;;;;9.77;6.25;;;;;;;;;;5053005;28;20029;-64
2021/06/19 13:19:44;;;;;;;12.70;6.28;;;;;;;;;;5058145;28;20032;-63
2021/06/19 13:22:09;;;;;;;11.75;6.15;;;;;;;;;;5057005;28;20017;-64
2021/06/19 13:24:36;;;;;;;14.02;6.63;;;;;;;;;;5057895;28;20518;-64
2021/06/19 13:27:12;;;;;;;12.50;6.40;;;;;;;;;;5050986;28;20063;-64
2021/06/19 13:29:39;;;;;;;11.45;6.55;;;;;;;;;;5039768;28;20416;-64
2021/06/19 13:32:04;;;;;;;13.07;6.45;;;;;;;;;;5047365;28;20089;-64
2021/06/19 13:34:30;;;;;;;11.13;6.07;;;;;;;;;;5046332;28;20542;-64
2021/06/19 13:37:00;;;;;;;12.20;6.80;;;;;;;;;;5047583;28;20442;-64
2021/06/19 13:39:27;;;;;;;9.25;7.13;;;;;;;;;;5047436;28;20040;-63
2021/06/19 13:41:58;;;;;;;11.13;6.50;;;;;;;;;;5046663;28;20120;-64
2021/06/19 13:44:33;;;;;;;12.77;5.93;;;;;;;;;;5046553;28;20028;-64
2021/06/19 13:46:58;;;;;;;12.88;5.65;;;;;;;;;;5042249;28;20103;-62
2021/06/19 13:49:24;;;;;;;8.73;6.18;;;;;;;;;;5051017;28;20104;-62
2021/06/19 13:51:50;;;;;;;8.95;6.45;;;;;;;;;;5051365;28;20037;-62
2021/06/19 13:54:16;;;;;;;8.65;6.85;;;;;;;;;;5051006;28;20021;-63
2021/06/19 13:56:41;;;;;;;10.30;6.10;;;;;;;;;;5053283;28;20452;-63
2021/06/19 13:59:06;;;;;;;8.35;6.55;;;;;;;;;;5049921;28;20120;-63
2021/06/19 14:01:31;;;;;;;8.90;5.47;;;;;;;;;;5048359;28;20025;-62
2021/06/19 14:03:56;;;;;;;11.27;6.27;;;;;;;;;;5050853;28;20025;-62
2021/06/19 14:06:22;;;;;;;8.97;6.10;;;;;;;;;;5050292;28;20275;-62
2021/06/19 14:08:51;;;;;;;13.52;7.03;;;;;;;;;;5051004;28;20280;-63
2021/06/19 14:11:18;;;;;;;9.35;5.72;;;;;;;;;;5050409;28;20112;-63
2021/06/19 14:13:43;;;;;;;11.30;5.55;;;;;;;;;;5049852;28;20029;-62
2021/06/19 14:16:09;;;;;;;11.23;5.95;;;;;;;;;;5050489;28;20067;-63
2021/06/19 14:18:34;;;;;;;10.68;5.78;;;;;;;;;;5048593;28;20055;-63
2021/06/19 14:21:02;;;;;;;11.70;6.75;;;;;;;;;;5055472;28;20032;-63
2021/06/19 14:23:27;;;;;;;8.75;5.72;;;;;;;;;;5048895;28;20029;-63
2021/06/19 14:25:52;;;;;;;10.80;7.03;;;;;;;;;;5050361;28;20051;-62
2021/06/19 14:28:18;;;;;;;9.40;6.65;;;;;;;;;;5050216;28;20279;-63
2021/06/19 14:30:43;;;;;;;9.33;5.57;;;;;;;;;;5050227;28;20021;-63
2021/06/19 14:33:08;;;;;;;9.13;5.90;;;;;;;;;;5049186;28;20039;-63